Flight Track Log - Related Links

Times and Time Zones

All times are in EDT time to prevent confusion due to time zone crossing. See the N5217C flight status page for this flight to view local times or setup timezone preferences in your user account.

Time Position Orientation Groundspeed Altitude Reporting Facility
EDT Latitude Longitude Course Direction KTS MPH feet Rate Location/Type
Fri 03:09:22 PM 39.4731 -84.4258 158° South 83 96 2,600  Level Indianapolis Center
Fri 03:10:54 PM 39.4308 -84.4042 158° South 114 131 2,900 298 Climbing Indianapolis Center
Fri 03:12:03 PM 39.4000 -84.3858 155° Southeast 107 123 3,400 366 Climbing Indianapolis Center
Fri 03:13:05 PM 39.3731 -84.3686 154° Southeast 108 124 3,700 387 Climbing Indianapolis Center
Fri 03:14:07 PM 39.3469 -84.3522 154° Southeast 107 123 4,200 387 Climbing Indianapolis Center
Fri 03:15:09 PM 39.3225 -84.3336 150° Southeast 104 120 4,500 339 Climbing Indianapolis Center
Fri 03:16:11 PM 39.2986 -84.3144 148° Southeast 102 117 4,900 290 Climbing Indianapolis Center
Fri 03:17:13 PM 39.2736 -84.2961 150° Southeast 102 117 5,100 97 Climbing Indianapolis Center
Fri 03:18:15 PM 39.2358 -84.2797 161° South 111 128 5,100 97 Level Indianapolis Center
Fri 03:19:17 PM 39.2008 -84.2606 157° South 124 143 5,300 339 Climbing Indianapolis Center
Fri 03:20:19 PM 39.1714 -84.2389 150° Southeast 124 143 5,800 484 Climbing Indianapolis Center
Fri 03:21:21 PM 39.1456 -84.2247 157° South 109 125 6,300 435 Climbing Indianapolis Center
Fri 03:22:23 PM 39.1183 -84.2097 157° South 106 122 6,700 387 Climbing Indianapolis Center
Fri 03:23:25 PM 39.0900 -84.1936 156° South 108 124 7,100 432 Climbing Indianapolis Center
Fri 03:24:28 PM 39.0619 -84.1775 156° South 108 124 7,600 480 Climbing Indianapolis Center
Fri 03:25:30 PM 39.0292 -84.1569 154° Southeast 111 128 8,100 435 Climbing Indianapolis Center
Fri 03:26:32 PM 39.0003 -84.1436 160° South 109 125 8,500 387 Climbing Indianapolis Center
Fri 03:27:34 PM 38.9708 -84.1286 158° South 112 129 8,900 290 Climbing Indianapolis Center
Fri 03:28:36 PM 38.9417 -84.1136 158° South 112 129 9,100 48 Climbing Indianapolis Center
Fri 03:29:38 PM 38.9086 -84.0975 159° South 127 146 9,000 -48 Descending Indianapolis Center
Fri 03:30:40 PM 38.8722 -84.0758 155° Southeast 141 162 9,000  Level Indianapolis Center
Fri 03:31:42 PM 38.8364 -84.0525 153° Southeast 142 163 9,000  Level Indianapolis Center
Fri 03:32:44 PM 38.7944 -84.0269 155° Southeast 144 166 9,000  Level Indianapolis Center
Fri 03:33:46 PM 38.7578 -84.0058 156° South 144 166 9,000  Level Indianapolis Center
Fri 03:34:48 PM 38.7194 -83.9847 157° South 148 170 9,000 145 Level Indianapolis Center
Fri 03:35:50 PM 38.6819 -83.9728 166° South 138 159 9,300 387 Climbing Indianapolis Center
Fri 03:36:52 PM 38.6492 -83.9578 160° South 126 145 9,800 435 Climbing Indianapolis Center
Fri 03:37:54 PM 38.6186 -83.9336 148° Southeast 120 138 10,200 387 Climbing Indianapolis Center
Fri 03:38:56 PM 38.5900 -83.9114 149° Southeast 120 138 10,600 387 Climbing Indianapolis Center
Fri 03:39:58 PM 38.5594 -83.8975 160° South 118 136 11,000 194 Climbing Indianapolis Center
Fri 03:41:00 PM 38.5225 -83.8739 153° Southeast 128 147 11,000  Level Indianapolis Center
Fri 03:42:03 PM 38.4858 -83.8536 157° South 141 162 11,000  Level Indianapolis Center
Fri 03:43:05 PM 38.4483 -83.8331 157° South 144 166 11,000  Level Indianapolis Center
Fri 03:44:07 PM 38.4097 -83.8100 155° Southeast 152 175 11,000  Level Indianapolis Center
Fri 03:45:09 PM 38.3728 -83.7867 154° Southeast 149 171 11,000  Level Indianapolis Center
Fri 03:46:11 PM 38.3267 -83.7617 157° South 153 176 11,000  Level Indianapolis Center
Fri 03:47:13 PM 38.2878 -83.7411 157° South 152 175 11,000  Level Indianapolis Center
Fri 03:48:15 PM 38.2489 -83.7208 158° South 150 173 11,000  Level Indianapolis Center
Fri 03:49:17 PM 38.2097 -83.6981 155° Southeast 152 175 11,000  Level Indianapolis Center
Fri 03:50:19 PM 38.1711 -83.6758 156° South 151 174 11,000  Level Indianapolis Center
Fri 03:51:21 PM 38.1256 -83.6511 157° South 150 173 11,000 48 Level Indianapolis Center
Fri 03:52:23 PM 38.0869 -83.6294 156° South 151 174 11,100 48 Climbing Indianapolis Center
Fri 03:53:25 PM 38.0486 -83.6075 156° South 150 173 11,100  Level Indianapolis Center
Fri 03:54:27 PM 38.0103 -83.5869 157° South 149 171 11,100  Level Indianapolis Center
Fri 03:55:29 PM 37.9722 -83.5656 156° South 147 169 11,100  Level Indianapolis Center
Fri 03:56:31 PM 37.9336 -83.5458 158° South 150 173 11,100  Level Indianapolis Center
Fri 03:57:33 PM 37.8889 -83.5192 155° Southeast 152 175 11,100  Level Indianapolis Center
Fri 03:58:35 PM 37.8503 -83.4992 158° South 149 171 11,100  Level Indianapolis Center
Fri 03:59:37 PM 37.8117 -83.4789 157° South 150 173 11,100  Level Indianapolis Center
Fri 04:00:39 PM 37.7739 -83.4567 155° Southeast 149 171 11,100  Level Indianapolis Center
Fri 04:01:41 PM 37.7356 -83.4356 156° South 150 173 11,100 -48 Level Indianapolis Center
Fri 04:02:43 PM 37.6903 -83.4117 157° South 151 174 11,000 -48 Descending Indianapolis Center
Fri 04:03:46 PM 37.6514 -83.3906 157° South 152 175 11,000  Level Indianapolis Center
Fri 04:04:48 PM 37.6133 -83.3703 157° South 150 173 11,000  Level Indianapolis Center
Fri 04:05:50 PM 37.5750 -83.3489 156° South 149 171 11,000  Level Indianapolis Center
Fri 04:06:52 PM 37.5367 -83.3272 156° South 150 173 11,000  Level Indianapolis Center
Fri 04:07:54 PM 37.4969 -83.3058 157° South 153 176 11,000  Level Indianapolis Center
Fri 04:08:56 PM 37.4517 -83.2825 158° South 151 174 11,000  Level Indianapolis Center
Fri 04:09:58 PM 37.4133 -83.2611 156° South 151 174 11,000  Level Indianapolis Center
Fri 04:11:00 PM 37.3750 -83.2397 156° South 150 173 11,000  Level Indianapolis Center
Fri 04:12:02 PM 37.3367 -83.2181 156° South 151 174 11,000  Level Indianapolis Center
Fri 04:13:04 PM 37.2981 -83.1981 158° South 149 171 11,000  Level Indianapolis Center
Fri 04:14:06 PM 37.2539 -83.1753 158° South 148 170 11,000  Level Indianapolis Center
Fri 04:15:08 PM 37.2156 -83.1539 156° South 149 171 11,000  Level Indianapolis Center
Fri 04:16:10 PM 37.1764 -83.1339 158° South 151 174 11,000  Level Indianapolis Center
Fri 04:17:12 PM 37.1369 -83.1125 157° South 154 177 11,000  Level Indianapolis Center
Fri 04:18:14 PM 37.0978 -83.0911 156° South 154 177 11,000  Level Indianapolis Center
Fri 04:19:16 PM 37.0592 -83.0706 157° South 152 175 11,000  Level Indianapolis Center
Fri 04:20:18 PM 37.0164 -83.0478 157° South 144 166 11,000  Level Indianapolis Center
Fri 04:21:20 PM 36.9797 -83.0278 156° South 143 165 11,000  Level Indianapolis Center
Fri 04:22:22 PM 36.9422 -83.0083 157° South 146 168 11,000  Level Indianapolis Center
Fri 04:23:24 PM 36.9047 -82.9881 157° South 148 170 11,000  Level Indianapolis Center
Fri 04:24:26 PM 36.8619 -82.9656 157° South 145 167 11,000  Level Indianapolis Center
Fri 04:25:32 PM 36.8231 -82.9469 159° South 153 176 11,000  Level Atlanta Center
Fri 04:26:32 PM 36.7872 -82.9267 156° South 153 176 11,000  Level Atlanta Center
Fri 04:27:32 PM 36.7475 -82.9067 158° South 153 176 11,000  Level Atlanta Center
Fri 04:28:32 PM 36.7119 -82.8864 155° Southeast 153 176 11,000  Level Atlanta Center
Fri 04:29:32 PM 36.6719 -82.8664 158° South 153 176 11,000  Level Atlanta Center
Fri 04:30:32 PM 36.6344 -82.8461 157° South 153 176 11,000  Level Atlanta Center
Fri 04:31:32 PM 36.5944 -82.8261 158° South 153 176 11,000  Level Atlanta Center
Fri 04:32:32 PM 36.5567 -82.8058 157° South 153 176 11,000  Level Atlanta Center
Fri 04:33:32 PM 36.5192 -82.7858 157° South 153 176 11,000  Level Atlanta Center
Fri 04:34:32 PM 36.4814 -82.7633 154° Southeast 153 176 11,000  Level Atlanta Center
Fri 04:35:32 PM 36.4414 -82.7433 158° South 153 176 11,000  Level Atlanta Center
Fri 04:36:32 PM 36.4036 -82.7231 157° South 153 176 11,000  Level Atlanta Center
Fri 04:37:32 PM 36.3658 -82.7031 157° South 153 176 11,000  Level Atlanta Center
Fri 04:38:32 PM 36.3281 -82.6831 157° South 153 176 11,000  Level Atlanta Center
Fri 04:39:32 PM 36.2883 -82.6633 158° South 153 176 11,000  Level Atlanta Center
Fri 04:40:32 PM 36.2464 -82.6408 157° South 153 176 11,000  Level Atlanta Center
Fri 04:41:32 PM 36.2086 -82.6208 157° South 153 176 11,000  Level Atlanta Center
Fri 04:42:32 PM 36.1686 -82.5983 156° South 153 176 11,000  Level Atlanta Center
Fri 04:43:32 PM 36.1289 -82.5786 158° South 153 176 11,000 -50 Level Atlanta Center
Fri 04:44:32 PM 36.0889 -82.5586 158° South 153 176 10,900 -50 Descending Atlanta Center
Fri 04:45:32 PM 36.0511 -82.5389 157° South 153 176 10,900  Level Atlanta Center
Fri 04:46:32 PM 36.0092 -82.5192 159° South 153 176 10,900  Level Atlanta Center
Fri 04:47:32 PM 35.9736 -82.4967 153° Southeast 153 176 10,900 50 Level Atlanta Center
Fri 04:48:32 PM 35.9336 -82.4819 163° South 148 170 11,000 -150 Climbing Atlanta Center
Fri 04:49:32 PM 35.8919 -82.4778 175° South 148 170 10,600 -550 Descending Atlanta Center
Fri 04:50:32 PM 35.8500 -82.4658 167° South 153 176 9,900 -700 Descending Atlanta Center
Fri 04:52:00 PM 35.7954 -82.4413 160° South  Level FlightAware Approximate
Fri 04:59:00 PM 35.5345 -82.3246 160° South  Level FlightAware Approximate
Fri 05:00:00 PM 35.4971 -82.3083 161° South  Level FlightAware Approximate
Fri 05:01:00 PM 35.4597 -82.2922 161° South  Level FlightAware Approximate
Fri 05:02:00 PM 35.4223 -82.2762 161° South  Level FlightAware Approximate
Fri 05:03:00 PM 35.3845 -82.2615 165° South  Level FlightAware Approximate
Fri 05:04:00 PM 35.3461 -82.2496 176° South  Level FlightAware Approximate
Fri 05:05:00 PM 35.3066 -82.2460 176° South  Level FlightAware Approximate
Fri 05:06:00 PM 35.2670 -82.2424 176° South  Level FlightAware Approximate
Fri 05:07:00 PM 35.2275 -82.2389 176° South  Level FlightAware Approximate
Fri 05:08:00 PM 35.1880 -82.2353 176° South  Level FlightAware Approximate
Fri 05:09:00 PM 35.1484 -82.2333 180° South  Level FlightAware Approximate
Fri 05:10:00 PM 35.1087 -82.2333 180° South  Level FlightAware Approximate
Fri 05:11:00 PM 35.0691 -82.2333 180° South  Level FlightAware Approximate
Fri 05:12:00 PM 35.0321 -82.2167 180° South  Level FlightAware Approximate
Fri 05:13:00 PM 35.0055 -82.1905 118° Southeast  Level FlightAware Approximate
Fri 05:14:00 PM 34.9871 -82.1476 118° Southeast  Level FlightAware Approximate
Fri 05:15:00 PM 34.9688 -82.1047 118° Southeast  Level FlightAware Approximate
Fri 05:16:00 PM 34.9504 -82.0619 118° Southeast  Level FlightAware Approximate
Fri 05:17:00 PM 34.9320 -82.0190 118° Southeast  Level FlightAware Approximate
Fri 05:18:00 PM 34.9132 -81.9764 121° Southeast  Level FlightAware Approximate
Fri 05:19:00 PM 34.9157 -81.9565 121° Southeast  Level Estimated
Fri 05:20:00 PM 34.9157 -81.9565 121° Southeast  Level Estimated

Login

Don't have an account? Register now (free) for customized features, flight alerts, and more!